Time;durP1;ratioP1;P1;durP2;ratioP2;P2;SDS_P1;SDS_P2;PMS_P1;PMS_P2;Temp;Humidity;BMP_temperature;BMP_pressure;BME280_temperature;BME280_humidity;BME280_pressure;Samples;Min_cycle;Max_cycle;Signal;HPM_P1;HPM_P2
2023/03/24 00:01:53;;;;;;;99.70;72.32;;;;;;;;;;5016235;28;20467;-74
2023/03/24 00:04:18;;;;;;;110.00;69.75;;;;;;;;;;5013497;28;20038;-75
2023/03/24 00:06:43;;;;;;;79.43;51.38;;;;;;;;;;5005372;28;20025;-74
2023/03/24 00:09:09;;;;;;;61.45;41.22;;;;;;;;;;5013935;28;20025;-74
2023/03/24 00:11:35;;;;;;;62.00;41.03;;;;;;;;;;5017090;28;20372;-74
2023/03/24 00:14:01;;;;;;;173.52;128.77;;;;;;;;;;5008032;28;20063;-74
2023/03/24 00:16:27;;;;;;;170.57;120.47;;;;;;;;;;5004966;28;20033;-75
2023/03/24 00:18:52;;;;;;;131.98;88.72;;;;;;;;;;5015324;28;20021;-75
2023/03/24 00:21:20;;;;;;;107.90;78.53;;;;;;;;;;5006021;28;20532;-74
2023/03/24 00:23:48;;;;;;;184.27;126.28;;;;;;;;;;5005218;28;20018;-74
2023/03/24 00:26:14;;;;;;;202.27;133.48;;;;;;;;;;5002803;28;20021;-75
2023/03/24 00:28:41;;;;;;;226.93;173.25;;;;;;;;;;5013719;28;20666;-73
2023/03/24 00:31:07;;;;;;;195.48;152.70;;;;;;;;;;5003647;28;20033;-73
2023/03/24 00:33:34;;;;;;;142.23;113.50;;;;;;;;;;5013626;28;20029;-72
2023/03/24 00:36:00;;;;;;;139.93;103.55;;;;;;;;;;5004005;28;20021;-73
2023/03/24 00:38:26;;;;;;;83.15;60.08;;;;;;;;;;5010964;28;20057;-75
2023/03/24 00:40:51;;;;;;;44.00;35.13;;;;;;;;;;5003664;28;20072;-75
2023/03/24 00:43:16;;;;;;;57.10;40.75;;;;;;;;;;5014633;28;20040;-75
2023/03/24 00:45:45;;;;;;;77.95;49.00;;;;;;;;;;5005734;28;20365;-75
2023/03/24 00:48:11;;;;;;;89.78;54.72;;;;;;;;;;5004848;28;20029;-76
2023/03/24 00:50:36;;;;;;;100.70;64.35;;;;;;;;;;5013262;28;20071;-74
2023/03/24 00:53:01;;;;;;;133.18;72.85;;;;;;;;;;5029059;28;20045;-75
2023/03/24 00:55:27;;;;;;;125.13;69.85;;;;;;;;;;5006464;28;20393;-75
2023/03/24 00:57:53;;;;;;;120.47;78.68;;;;;;;;;;5000665;28;20100;-76
2023/03/24 01:00:23;;;;;;;121.57;77.57;;;;;;;;;;5010786;28;20037;-76
2023/03/24 01:02:52;;;;;;;101.93;69.20;;;;;;;;;;5016631;28;20041;-73
2023/03/24 01:05:19;;;;;;;105.07;71.83;;;;;;;;;;5012989;28;20029;-74
2023/03/24 01:07:45;;;;;;;98.28;67.10;;;;;;;;;;5016386;28;20022;-75
2023/03/24 01:10:12;;;;;;;62.65;45.10;;;;;;;;;;5008201;28;20080;-75
2023/03/24 01:12:37;;;;;;;62.47;43.10;;;;;;;;;;5007905;28;20025;-75
2023/03/24 01:15:05;;;;;;;61.40;42.50;;;;;;;;;;5015129;28;20033;-76
2023/03/24 01:17:31;;;;;;;61.60;43.28;;;;;;;;;;5028797;28;20025;-75
2023/03/24 01:19:56;;;;;;;72.10;49.25;;;;;;;;;;5012919;28;20083;-76
2023/03/24 01:22:25;;;;;;;87.07;58.65;;;;;;;;;;5015889;28;20350;-76
2023/03/24 01:24:51;;;;;;;126.28;78.55;;;;;;;;;;5011336;28;20032;-77
2023/03/24 01:27:17;;;;;;;120.03;76.78;;;;;;;;;;5001438;28;20382;-76
2023/03/24 01:29:42;;;;;;;121.00;78.55;;;;;;;;;;5008032;28;20022;-76
2023/03/24 01:32:08;;;;;;;96.03;65.20;;;;;;;;;;5016847;28;20034;-76
2023/03/24 01:34:33;;;;;;;75.82;50.83;;;;;;;;;;5007964;28;20063;-75
2023/03/24 01:36:59;;;;;;;36.80;29.02;;;;;;;;;;5004638;28;20104;-76
2023/03/24 01:39:26;;;;;;;26.05;21.52;;;;;;;;;;5000556;28;20029;-75
2023/03/24 01:41:52;;;;;;;39.35;33.50;;;;;;;;;;5000474;28;20033;-75
2023/03/24 01:44:26;;;;;;;53.35;41.72;;;;;;;;;;4999911;28;20033;-75
2023/03/24 01:46:52;;;;;;;57.33;43.38;;;;;;;;;;5006144;28;20488;-75
2023/03/24 01:49:18;;;;;;;55.28;42.75;;;;;;;;;;5027683;28;20066;-75
2023/03/24 01:51:45;;;;;;;54.80;43.65;;;;;;;;;;5015148;28;20041;-76
2023/03/24 01:54:13;;;;;;;44.78;36.75;;;;;;;;;;5013363;28;20037;-75
2023/03/24 01:56:41;;;;;;;76.05;55.22;;;;;;;;;;5009685;28;20033;-76
2023/03/24 01:59:09;;;;;;;75.00;53.08;;;;;;;;;;5006968;28;20029;-75
2023/03/24 02:01:34;;;;;;;119.72;73.22;;;;;;;;;;5003400;28;20063;-75
2023/03/24 02:04:02;;;;;;;102.75;67.13;;;;;;;;;;5028626;28;20029;-75
2023/03/24 02:06:28;;;;;;;103.35;68.28;;;;;;;;;;5012497;28;20033;-75
2023/03/24 02:08:58;;;;;;;108.80;73.40;;;;;;;;;;5012644;28;20093;-76
2023/03/24 02:11:25;;;;;;;97.72;68.55;;;;;;;;;;5013240;28;20029;-76
2023/03/24 02:13:50;;;;;;;101.43;60.92;;;;;;;;;;5005477;28;20044;-77
2023/03/24 02:16:16;;;;;;;95.97;65.10;;;;;;;;;;5003577;28;20348;-75
2023/03/24 02:18:57;;;;;;;94.70;62.88;;;;;;;;;;5014806;28;20079;-75
2023/03/24 02:21:41;;;;;;;61.60;41.88;;;;;;;;;;5013217;28;20017;-74
2023/03/24 02:24:35;;;;;;;63.60;42.55;;;;;;;;;;5013197;28;20031;-74
2023/03/24 02:27:08;;;;;;;75.28;49.22;;;;;;;;;;5021529;28;20128;-76
2023/03/24 02:29:52;;;;;;;76.30;44.13;;;;;;;;;;5018806;28;20477;-75
2023/03/24 02:32:17;;;;;;;54.15;36.22;;;;;;;;;;5024729;28;20520;-75
2023/03/24 02:34:48;;;;;;;43.65;31.42;;;;;;;;;;5030219;28;20124;-75
2023/03/24 02:37:26;;;;;;;42.20;30.50;;;;;;;;;;5030887;28;20118;-75
2023/03/24 02:40:06;;;;;;;29.17;24.08;;;;;;;;;;5029925;28;20045;-77
2023/03/24 02:42:35;;;;;;;50.83;37.40;;;;;;;;;;5023730;28;20040;-76
2023/03/24 02:45:04;;;;;;;44.63;33.72;;;;;;;;;;5035262;28;20546;-77
2023/03/24 02:47:34;;;;;;;73.65;54.97;;;;;;;;;;5025448;28;20128;-76
2023/03/24 02:50:13;;;;;;;65.55;49.88;;;;;;;;;;5026059;28;20120;-75
2023/03/24 02:52:59;;;;;;;36.45;30.65;;;;;;;;;;5026853;28;20038;-76
2023/03/24 02:55:31;;;;;;;47.10;35.70;;;;;;;;;;4993448;28;20098;-75
2023/03/24 02:58:04;;;;;;;46.00;35.92;;;;;;;;;;5036544;28;20357;-75
2023/03/24 03:00:48;;;;;;;63.85;46.90;;;;;;;;;;5033044;28;20033;-76
2023/03/24 03:03:17;;;;;;;43.53;33.80;;;;;;;;;;5027730;28;20070;-75
2023/03/24 03:05:52;;;;;;;43.90;35.03;;;;;;;;;;5026489;28;20025;-75
2023/03/24 03:08:19;;;;;;;51.88;38.22;;;;;;;;;;5016828;28;20037;-75
2023/03/24 03:10:47;;;;;;;65.82;49.85;;;;;;;;;;5002298;28;20017;-75
2023/03/24 03:13:17;;;;;;;70.10;51.38;;;;;;;;;;5012787;28;20043;-75
2023/03/24 03:15:46;;;;;;;100.25;72.50;;;;;;;;;;5015719;28;20415;-75
2023/03/24 03:18:16;;;;;;;61.30;46.58;;;;;;;;;;5014990;28;20464;-75
2023/03/24 03:20:41;;;;;;;;;;;;;;;;;;5014877;28;20030;-74
2023/03/24 03:23:10;;;;;;;46.63;36.03;;;;;;;;;;5007765;28;19913;-76
2023/03/24 03:25:41;;;;;;;46.90;37.33;;;;;;;;;;5004772;28;20546;-75
2023/03/24 03:28:09;;;;;;;48.00;37.03;;;;;;;;;;5019222;28;20052;-75
2023/03/24 03:30:37;;;;;;;40.72;34.20;;;;;;;;;;5003960;28;20026;-75
2023/03/24 03:33:05;;;;;;;31.95;27.70;;;;;;;;;;5003766;28;20041;-76
2023/03/24 03:35:38;;;;;;;42.33;32.85;;;;;;;;;;5005537;28;20040;-75
2023/03/24 03:38:07;;;;;;;38.05;31.30;;;;;;;;;;5013909;28;20030;-76
2023/03/24 03:40:32;;;;;;;35.70;29.80;;;;;;;;;;5013531;28;20463;-77
2023/03/24 03:42:57;;;;;;;38.10;30.95;;;;;;;;;;5013757;28;20037;-76
2023/03/24 03:45:23;;;;;;;37.53;32.67;;;;;;;;;;5006106;28;20030;-76
2023/03/24 03:47:49;;;;;;;40.97;33.65;;;;;;;;;;5029191;28;20024;-75
2023/03/24 03:50:14;;;;;;;49.88;43.97;;;;;;;;;;5017613;28;20055;-76
2023/03/24 03:52:40;;;;;;;38.20;32.45;;;;;;;;;;5006624;28;20037;-74
2023/03/24 03:55:06;;;;;;;72.53;53.38;;;;;;;;;;5014997;28;20036;-74
2023/03/24 03:57:32;;;;;;;68.60;51.42;;;;;;;;;;5014471;28;20342;-73
2023/03/24 03:59:59;;;;;;;59.33;47.33;;;;;;;;;;5011948;28;20036;-73
2023/03/24 04:02:37;;;;;;;53.17;39.83;;;;;;;;;;5011842;28;20057;-73
2023/03/24 04:05:13;;;;;;;42.15;33.05;;;;;;;;;;5010855;28;20021;-74
2023/03/24 04:08:07;;;;;;;47.00;34.63;;;;;;;;;;5008073;28;20471;-74
2023/03/24 04:10:38;;;;;;;88.47;78.75;;;;;;;;;;5013040;28;20388;-74
2023/03/24 04:13:22;;;;;;;99.22;88.82;;;;;;;;;;5014239;28;20033;-75
2023/03/24 04:15:50;;;;;;;47.08;40.03;;;;;;;;;;5015449;28;20064;-77
2023/03/24 04:18:15;;;;;;;26.08;23.40;;;;;;;;;;5000468;28;20108;-74
2023/03/24 04:21:01;;;;;;;20.85;18.45;;;;;;;;;;4989483;28;20408;-76
2023/03/24 04:23:29;;;;;;;23.48;19.70;;;;;;;;;;4992941;28;20036;-75
2023/03/24 04:26:10;;;;;;;27.15;21.75;;;;;;;;;;5003058;28;20026;-74
2023/03/24 04:28:57;;;;;;;26.02;21.73;;;;;;;;;;4990152;28;20026;-76
2023/03/24 04:31:28;;;;;;;26.90;23.00;;;;;;;;;;5001722;28;20065;-74
2023/03/24 04:33:57;;;;;;;30.83;26.95;;;;;;;;;;4992701;28;20025;-74
2023/03/24 04:36:33;;;;;;;44.15;35.90;;;;;;;;;;4998857;28;20480;-74
2023/03/24 04:39:00;;;;;;;39.78;33.10;;;;;;;;;;5013909;28;20037;-75
2023/03/24 04:41:28;;;;;;;35.75;30.52;;;;;;;;;;5011548;28;20035;-74
2023/03/24 04:43:56;;;;;;;58.85;48.83;;;;;;;;;;5015225;28;20067;-74
2023/03/24 04:46:21;;;;;;;54.47;44.85;;;;;;;;;;5013222;28;20045;-76
2023/03/24 04:48:49;;;;;;;30.42;26.73;;;;;;;;;;4997605;28;20445;-75
2023/03/24 04:51:16;;;;;;;25.88;23.10;;;;;;;;;;4990742;28;20034;-74
2023/03/24 04:53:41;;;;;;;50.92;42.15;;;;;;;;;;4993093;28;20026;-75
2023/03/24 04:56:17;;;;;;;40.50;36.22;;;;;;;;;;4992327;28;20022;-75
2023/03/24 04:58:42;;;;;;;234.98;184.02;;;;;;;;;;4994428;28;20513;-75
2023/03/24 05:01:09;;;;;;;259.48;196.70;;;;;;;;;;4990072;28;20172;-75
2023/03/24 05:03:36;;;;;;;172.50;124.75;;;;;;;;;;5016722;28;20048;-75
2023/03/24 05:06:04;;;;;;;123.35;82.25;;;;;;;;;;5011477;28;20029;-74
2023/03/24 05:08:30;;;;;;;46.72;39.05;;;;;;;;;;5014635;28;20025;-73
2023/03/24 05:10:55;;;;;;;33.33;29.40;;;;;;;;;;5004628;28;20305;-75
2023/03/24 05:13:21;;;;;;;24.80;22.13;;;;;;;;;;5011759;28;20405;-74
2023/03/24 05:15:46;;;;;;;27.23;24.27;;;;;;;;;;5015001;28;20064;-74
2023/03/24 05:18:11;;;;;;;23.63;20.55;;;;;;;;;;5011641;28;20111;-73
2023/03/24 05:20:37;;;;;;;135.05;120.45;;;;;;;;;;5012684;28;20116;-74
2023/03/24 05:23:02;;;;;;;219.15;195.50;;;;;;;;;;5000091;28;20626;-74
2023/03/24 05:25:28;;;;;;;111.57;99.38;;;;;;;;;;5012129;28;20027;-74
2023/03/24 05:27:53;;;;;;;102.50;91.30;;;;;;;;;;4998325;28;20033;-73
2023/03/24 05:30:19;;;;;;;114.97;94.00;;;;;;;;;;5006952;28;20048;-74
2023/03/24 05:32:44;;;;;;;129.57;91.60;;;;;;;;;;5014199;28;20029;-74
2023/03/24 05:35:10;;;;;;;131.63;98.78;;;;;;;;;;5012250;28;20044;-74
2023/03/24 05:37:35;;;;;;;135.00;100.93;;;;;;;;;;5010034;28;20037;-75
2023/03/24 05:40:00;;;;;;;161.55;122.63;;;;;;;;;;4993897;28;20025;-74
2023/03/24 05:42:26;;;;;;;103.18;80.95;;;;;;;;;;4992584;28;20029;-74
2023/03/24 05:44:51;;;;;;;62.90;47.58;;;;;;;;;;4990783;28;20028;-73
2023/03/24 05:47:18;;;;;;;47.78;40.60;;;;;;;;;;5001743;28;20112;-74
2023/03/24 05:49:47;;;;;;;51.92;42.08;;;;;;;;;;5001714;28;20064;-75
2023/03/24 05:52:15;;;;;;;98.30;84.78;;;;;;;;;;5007018;28;20037;-74
2023/03/24 05:54:40;;;;;;;186.10;147.10;;;;;;;;;;5005700;28;20057;-74
2023/03/24 05:57:07;;;;;;;128.30;108.78;;;;;;;;;;5012324;28;20130;-75
2023/03/24 05:59:36;;;;;;;61.55;53.90;;;;;;;;;;5002996;28;20396;-74
2023/03/24 06:02:02;;;;;;;;;;;;;;;;;;5000810;28;20207;-73
2023/03/24 06:04:29;;;;;;;67.75;56.20;;;;;;;;;;5002332;28;19956;-74
2023/03/24 06:06:57;;;;;;;27.48;23.35;;;;;;;;;;5010143;28;20125;-76
2023/03/24 06:09:23;;;;;;;33.67;28.08;;;;;;;;;;5012287;28;20057;-72
2023/03/24 06:11:49;;;;;;;42.22;35.20;;;;;;;;;;5010990;28;20091;-72
2023/03/24 06:14:14;;;;;;;43.45;38.63;;;;;;;;;;5015403;28;20397;-74
2023/03/24 06:16:39;;;;;;;51.05;44.22;;;;;;;;;;5015989;28;20033;-73
2023/03/24 06:19:05;;;;;;;65.50;51.38;;;;;;;;;;5009155;28;20030;-71
2023/03/24 06:21:31;;;;;;;63.95;50.53;;;;;;;;;;5008627;28;20033;-73
2023/03/24 06:23:57;;;;;;;37.97;33.05;;;;;;;;;;5016046;28;20074;-72
2023/03/24 06:26:23;;;;;;;52.65;44.92;;;;;;;;;;5016892;28;20030;-72
2023/03/24 06:28:50;;;;;;;29.13;25.60;;;;;;;;;;5015269;28;20014;-71
2023/03/24 06:31:18;;;;;;;26.67;21.70;;;;;;;;;;5015595;28;20033;-68
2023/03/24 06:33:44;;;;;;;27.88;24.42;;;;;;;;;;5015321;28;20504;-70
2023/03/24 06:36:11;;;;;;;32.08;25.42;;;;;;;;;;5012736;28;20053;-68
2023/03/24 06:38:36;;;;;;;41.10;29.25;;;;;;;;;;5019148;28;20463;-70
2023/03/24 06:41:02;;;;;;;32.63;25.58;;;;;;;;;;5009402;28;20029;-68
2023/03/24 06:43:28;;;;;;;35.35;27.02;;;;;;;;;;5011739;28;20048;-73
2023/03/24 06:45:54;;;;;;;48.63;38.30;;;;;;;;;;5024820;28;23220;-77
2023/03/24 06:48:19;;;;;;;37.38;29.70;;;;;;;;;;5018797;28;20049;-74
2023/03/24 06:50:45;;;;;;;33.58;28.90;;;;;;;;;;5017015;28;20104;-78
2023/03/24 06:53:10;;;;;;;30.85;27.40;;;;;;;;;;5016884;28;20040;-77
2023/03/24 06:55:35;;;;;;;21.73;19.63;;;;;;;;;;5003518;28;20064;-78
2023/03/24 06:58:01;;;;;;;24.02;21.52;;;;;;;;;;5010360;28;20029;-76
2023/03/24 07:00:28;;;;;;;41.25;34.75;;;;;;;;;;5011035;28;20121;-79
2023/03/24 07:02:54;;;;;;;29.42;26.40;;;;;;;;;;5003996;28;20509;-77
2023/03/24 07:05:20;;;;;;;26.55;22.65;;;;;;;;;;5016259;28;20063;-78
2023/03/24 07:07:46;;;;;;;25.13;21.45;;;;;;;;;;5011159;28;20021;-76
2023/03/24 07:10:12;;;;;;;24.63;20.95;;;;;;;;;;5016223;28;20112;-77
2023/03/24 07:12:38;;;;;;;30.15;25.48;;;;;;;;;;5016886;28;20032;-76
2023/03/24 07:15:06;;;;;;;33.50;27.85;;;;;;;;;;5019377;28;20076;-77
2023/03/24 07:17:31;;;;;;;20.55;17.50;;;;;;;;;;5017477;28;20017;-76
2023/03/24 07:19:56;;;;;;;21.25;18.70;;;;;;;;;;5016111;28;20030;-76
2023/03/24 07:22:22;;;;;;;21.20;17.92;;;;;;;;;;5017031;28;20029;-77
2023/03/24 07:24:47;;;;;;;24.88;18.67;;;;;;;;;;5018090;28;20021;-76
2023/03/24 07:27:12;;;;;;;22.40;19.52;;;;;;;;;;5014493;28;20125;-75
2023/03/24 07:29:37;;;;;;;16.73;14.93;;;;;;;;;;5018113;28;20029;-75
2023/03/24 07:32:03;;;;;;;16.85;14.90;;;;;;;;;;5018699;28;20072;-75
2023/03/24 07:34:28;;;;;;;16.20;14.60;;;;;;;;;;5014841;28;20045;-75
2023/03/24 07:36:54;;;;;;;19.80;17.83;;;;;;;;;;5018969;28;20405;-77
2023/03/24 07:39:19;;;;;;;19.73;17.65;;;;;;;;;;5017805;28;20088;-75
2023/03/24 07:41:45;;;;;;;22.33;18.20;;;;;;;;;;5017445;28;20034;-76
2023/03/24 07:44:10;;;;;;;31.30;23.15;;;;;;;;;;5018879;28;20053;-76
2023/03/24 07:46:36;;;;;;;25.83;21.38;;;;;;;;;;5018093;28;20471;-76
2023/03/24 07:49:01;;;;;;;27.27;22.70;;;;;;;;;;5017556;28;20386;-75
2023/03/24 07:51:27;;;;;;;21.77;19.48;;;;;;;;;;5018135;28;20029;-76
2023/03/24 07:53:53;;;;;;;22.45;20.05;;;;;;;;;;5016773;28;20372;-76
2023/03/24 07:56:18;;;;;;;19.65;16.65;;;;;;;;;;5016370;28;20073;-76
2023/03/24 07:58:43;;;;;;;18.60;14.18;;;;;;;;;;5016921;28;20033;-75
2023/03/24 08:01:09;;;;;;;17.25;15.20;;;;;;;;;;5017855;28;20025;-77
2023/03/24 08:03:35;;;;;;;19.15;16.27;;;;;;;;;;5014864;28;20485;-75
2023/03/24 08:06:01;;;;;;;22.67;17.50;;;;;;;;;;5014255;28;20429;-76
2023/03/24 08:08:26;;;;;;;25.48;18.27;;;;;;;;;;5016347;28;20113;-76
2023/03/24 08:10:51;;;;;;;17.30;13.98;;;;;;;;;;5017797;28;20026;-76
2023/03/24 08:13:17;;;;;;;15.73;13.98;;;;;;;;;;5016279;28;20037;-78
2023/03/24 08:15:42;;;;;;;14.90;12.55;;;;;;;;;;5013482;28;20067;-76
2023/03/24 08:18:08;;;;;;;14.57;11.65;;;;;;;;;;5017164;28;20405;-76
2023/03/24 08:20:33;;;;;;;9.68;8.77;;;;;;;;;;5016979;28;21450;-78
2023/03/24 08:22:59;;;;;;;10.65;9.65;;;;;;;;;;5015913;28;20453;-76
2023/03/24 08:25:25;;;;;;;12.15;9.88;;;;;;;;;;5016992;28;20029;-74
2023/03/24 08:27:51;;;;;;;9.43;8.35;;;;;;;;;;5015638;28;20670;-75
2023/03/24 08:30:17;;;;;;;10.10;9.05;;;;;;;;;;5015400;28;20133;-75
2023/03/24 08:32:44;;;;;;;11.27;9.80;;;;;;;;;;5016471;28;20023;-78
2023/03/24 08:35:13;;;;;;;9.95;8.57;;;;;;;;;;5015251;28;20029;-75
2023/03/24 08:37:38;;;;;;;14.97;13.37;;;;;;;;;;5014876;28;20030;-76
2023/03/24 08:40:04;;;;;;;13.85;12.13;;;;;;;;;;5015188;28;20025;-77
2023/03/24 08:42:30;;;;;;;16.10;12.38;;;;;;;;;;5015145;28;20112;-75
2023/03/24 08:44:55;;;;;;;14.35;12.95;;;;;;;;;;5015226;28;20025;-76
2023/03/24 08:47:20;;;;;;;12.88;11.38;;;;;;;;;;5013479;28;20049;-76
2023/03/24 08:49:45;;;;;;;11.13;9.80;;;;;;;;;;5013461;28;20032;-76
2023/03/24 08:52:11;;;;;;;12.48;11.27;;;;;;;;;;5015468;28;20072;-75
2023/03/24 08:54:36;;;;;;;11.32;10.00;;;;;;;;;;5016859;28;20027;-75
2023/03/24 08:57:01;;;;;;;12.20;10.27;;;;;;;;;;5011793;28;20109;-76
2023/03/24 08:59:27;;;;;;;9.02;7.97;;;;;;;;;;5013362;28;20021;-76
2023/03/24 09:01:52;;;;;;;6.70;5.90;;;;;;;;;;5014836;28;20092;-77
2023/03/24 09:04:17;;;;;;;6.05;5.50;;;;;;;;;;5030516;28;20444;-76
2023/03/24 09:06:42;;;;;;;7.40;6.70;;;;;;;;;;5016064;28;20040;-76
2023/03/24 09:09:08;;;;;;;8.32;7.53;;;;;;;;;;5015677;28;21146;-76
2023/03/24 09:11:33;;;;;;;7.88;7.07;;;;;;;;;;5014021;28;20025;-75
2023/03/24 09:13:59;;;;;;;6.60;6.00;;;;;;;;;;5011394;28;20026;-75
2023/03/24 09:16:24;;;;;;;7.03;6.15;;;;;;;;;;5012677;28;20121;-76
2023/03/24 09:18:50;;;;;;;8.98;8.07;;;;;;;;;;5014990;28;20165;-75
2023/03/24 09:21:15;;;;;;;7.47;6.68;;;;;;;;;;5013083;28;20113;-75
2023/03/24 09:23:41;;;;;;;6.80;6.20;;;;;;;;;;5015560;28;20055;-75
2023/03/24 09:26:06;;;;;;;17.67;14.07;;;;;;;;;;5016856;28;20036;-75
2023/03/24 09:28:32;;;;;;;6.30;5.70;;;;;;;;;;5016431;28;20112;-76
2023/03/24 09:30:58;;;;;;;6.38;5.10;;;;;;;;;;5013581;28;20403;-76
2023/03/24 09:33:23;;;;;;;5.88;5.15;;;;;;;;;;5013945;28;20059;-75
2023/03/24 09:35:52;;;;;;;5.97;5.43;;;;;;;;;;5014205;28;20033;-76
2023/03/24 09:38:17;;;;;;;5.80;5.18;;;;;;;;;;5011264;28;20502;-76
2023/03/24 09:40:53;;;;;;;5.93;5.00;;;;;;;;;;5015051;28;20037;-76
2023/03/24 09:43:26;;;;;;;10.13;9.02;;;;;;;;;;5014230;28;20116;-76
2023/03/24 09:45:56;;;;;;;6.70;6.03;;;;;;;;;;5015076;28;20124;-76
2023/03/24 09:48:27;;;;;;;9.13;8.25;;;;;;;;;;5011364;28;20054;-77
2023/03/24 09:50:58;;;;;;;7.28;6.60;;;;;;;;;;5015000;28;20044;-77
2023/03/24 09:53:28;;;;;;;8.23;6.30;;;;;;;;;;5010916;28;20034;-76
2023/03/24 09:55:54;;;;;;;6.13;5.53;;;;;;;;;;5030523;28;21039;-77
2023/03/24 09:58:19;;;;;;;6.57;4.72;;;;;;;;;;5014062;28;20010;-76
2023/03/24 10:00:44;;;;;;;4.80;4.40;;;;;;;;;;5013578;28;20399;-77
2023/03/24 10:03:19;;;;;;;5.47;4.97;;;;;;;;;;5015057;28;20111;-77
2023/03/24 10:06:06;;;;;;;6.07;5.47;;;;;;;;;;5010946;28;20037;-77
2023/03/24 10:08:35;;;;;;;6.88;6.18;;;;;;;;;;5011416;28;20067;-77
2023/03/24 10:11:12;;;;;;;4.90;4.50;;;;;;;;;;5014032;28;20030;-77
2023/03/24 10:14:07;;;;;;;6.18;5.63;;;;;;;;;;5014228;28;20025;-75
2023/03/24 10:16:43;;;;;;;16.77;15.00;;;;;;;;;;5013403;28;20425;-78
2023/03/24 10:19:20;;;;;;;9.70;8.77;;;;;;;;;;5014135;28;20037;-76
2023/03/24 10:22:08;;;;;;;8.10;7.30;;;;;;;;;;5015603;28;20076;-76
2023/03/24 10:24:43;;;;;;;11.25;7.25;;;;;;;;;;5015335;28;20041;-77
2023/03/24 10:27:15;;;;;;;4.15;3.85;;;;;;;;;;5013427;28;20057;-76
2023/03/24 10:29:41;;;;;;;3.97;3.67;;;;;;;;;;5014391;28;20362;-77
2023/03/24 10:32:24;;;;;;;6.70;5.10;;;;;;;;;;5014223;28;21137;-77
2023/03/24 10:34:59;;;;;;;5.47;4.97;;;;;;;;;;5013300;28;20037;-75
2023/03/24 10:37:26;;;;;;;4.65;4.07;;;;;;;;;;5013976;28;20021;-75
2023/03/24 10:39:51;;;;;;;3.78;3.47;;;;;;;;;;5011023;28;20336;-75
2023/03/24 10:42:23;;;;;;;4.57;4.18;;;;;;;;;;5012370;28;20661;-75
2023/03/24 10:44:49;;;;;;;5.97;5.35;;;;;;;;;;5015687;28;20029;-76
2023/03/24 10:47:17;;;;;;;3.70;3.40;;;;;;;;;;5012578;28;20048;-77
2023/03/24 10:49:59;;;;;;;3.55;3.25;;;;;;;;;;5013797;28;20021;-78
2023/03/24 10:52:25;;;;;;;3.38;3.15;;;;;;;;;;5015513;28;20130;-76
2023/03/24 10:54:55;;;;;;;3.03;2.72;;;;;;;;;;5012808;28;20454;-76
2023/03/24 10:57:21;;;;;;;3.17;2.90;;;;;;;;;;5011770;28;20108;-77
2023/03/24 10:59:58;;;;;;;3.53;3.22;;;;;;;;;;5012565;28;20104;-76
2023/03/24 11:02:28;;;;;;;2.95;2.65;;;;;;;;;;5016594;28;20033;-77
2023/03/24 11:04:57;;;;;;;3.10;2.80;;;;;;;;;;5018245;28;20040;-77
2023/03/24 11:07:31;;;;;;;3.38;3.08;;;;;;;;;;5018354;28;20057;-78
2023/03/24 11:09:59;;;;;;;2.70;2.50;;;;;;;;;;5018665;28;20037;-76
2023/03/24 11:12:25;;;;;;;2.70;2.50;;;;;;;;;;5017252;28;20025;-75
2023/03/24 11:14:59;;;;;;;4.78;4.35;;;;;;;;;;5017948;28;20036;-76
2023/03/24 11:17:25;;;;;;;7.45;6.35;;;;;;;;;;5018506;28;20035;-76
2023/03/24 11:19:55;;;;;;;4.38;3.92;;;;;;;;;;5017115;28;20025;-77
2023/03/24 11:22:20;;;;;;;4.93;4.53;;;;;;;;;;5015865;28;20033;-77
2023/03/24 11:24:51;;;;;;;6.53;5.82;;;;;;;;;;5015467;28;20052;-76
2023/03/24 11:27:17;;;;;;;4.63;4.18;;;;;;;;;;5012890;28;20332;-77
2023/03/24 11:29:44;;;;;;;3.85;3.53;;;;;;;;;;5016067;28;20037;-76
2023/03/24 11:32:15;;;;;;;3.67;3.38;;;;;;;;;;5034235;28;20041;-76
2023/03/24 11:34:48;;;;;;;9.95;8.98;;;;;;;;;;5016585;28;20041;-76
2023/03/24 11:37:17;;;;;;;4.75;4.13;;;;;;;;;;5017237;28;20342;-78
2023/03/24 11:39:43;;;;;;;3.58;3.28;;;;;;;;;;5017829;28;20030;-77
2023/03/24 11:42:11;;;;;;;3.78;3.33;;;;;;;;;;5016503;28;20048;-76
2023/03/24 11:44:36;;;;;;;3.55;3.03;;;;;;;;;;5016942;28;20022;-77
2023/03/24 11:47:10;;;;;;;3.50;3.20;;;;;;;;;;5014529;28;20107;-75
2023/03/24 11:49:39;;;;;;;5.45;4.97;;;;;;;;;;5016740;28;20021;-76
2023/03/24 11:52:08;;;;;;;4.35;3.92;;;;;;;;;;5015394;28;20049;-78
2023/03/24 11:54:35;;;;;;;3.80;3.50;;;;;;;;;;5014760;28;20036;-76
2023/03/24 11:57:09;;;;;;;4.57;4.18;;;;;;;;;;5017811;28;20025;-76
2023/03/24 11:59:37;;;;;;;3.67;3.38;;;;;;;;;;5016530;28;20036;-76
2023/03/24 12:02:15;;;;;;;3.70;3.40;;;;;;;;;;5018940;28;20336;-78
2023/03/24 12:04:48;;;;;;;4.78;4.00;;;;;;;;;;5014381;28;20108;-78
2023/03/24 12:07:30;;;;;;;3.75;3.22;;;;;;;;;;5016487;28;21139;-77
2023/03/24 12:09:58;;;;;;;3.80;3.38;;;;;;;;;;5013851;28;20088;-76
2023/03/24 12:12:39;;;;;;;3.90;3.50;;;;;;;;;;5018706;28;20068;-77
2023/03/24 12:15:11;;;;;;;4.38;3.97;;;;;;;;;;5016656;28;20277;-75
2023/03/24 12:17:40;;;;;;;5.38;4.65;;;;;;;;;;5013292;28;20117;-76
2023/03/24 12:20:24;;;;;;;5.55;5.05;;;;;;;;;;5009724;28;20109;-77
2023/03/24 12:22:52;;;;;;;6.13;4.63;;;;;;;;;;5014890;28;20029;-77
2023/03/24 12:25:22;;;;;;;4.83;4.37;;;;;;;;;;5016732;28;20063;-76
2023/03/24 12:28:00;;;;;;;5.97;5.38;;;;;;;;;;5014335;28;20132;-77
2023/03/24 12:30:46;;;;;;;5.53;5.13;;;;;;;;;;5016935;28;20033;-77
2023/03/24 12:33:27;;;;;;;8.75;6.40;;;;;;;;;;5013365;28;20449;-75
2023/03/24 12:35:55;;;;;;;4.45;4.05;;;;;;;;;;5017460;28;20029;-76
2023/03/24 12:38:38;;;;;;;4.30;4.00;;;;;;;;;;5016234;28;20144;-76
2023/03/24 12:41:12;;;;;;;4.47;4.07;;;;;;;;;;5018539;28;20087;-77
2023/03/24 12:43:54;;;;;;;5.45;4.88;;;;;;;;;;5013924;28;20060;-76
2023/03/24 12:46:41;;;;;;;5.60;4.70;;;;;;;;;;5015035;28;20454;-77
2023/03/24 12:49:09;;;;;;;5.10;4.60;;;;;;;;;;5007645;28;20365;-77
2023/03/24 12:51:38;;;;;;;5.05;3.83;;;;;;;;;;5016148;28;20025;-77
2023/03/24 12:54:04;;;;;;;4.10;3.25;;;;;;;;;;5015210;28;20209;-75
2023/03/24 12:56:39;;;;;;;5.82;3.58;;;;;;;;;;5015876;28;20203;-76
2023/03/24 12:59:28;;;;;;;5.07;4.07;;;;;;;;;;5015384;28;20022;-76
2023/03/24 13:02:11;;;;;;;3.92;3.50;;;;;;;;;;5019422;28;20045;-79
2023/03/24 13:04:38;;;;;;;3.80;3.50;;;;;;;;;;5016480;28;20032;-76
2023/03/24 13:07:11;;;;;;;3.78;3.28;;;;;;;;;;5013984;28;20457;-77
2023/03/24 13:09:39;;;;;;;3.80;3.50;;;;;;;;;;5016080;28;20071;-77
2023/03/24 13:12:04;;;;;;;5.22;4.72;;;;;;;;;;5013990;28;20033;-76
2023/03/24 13:14:33;;;;;;;9.23;4.45;;;;;;;;;;5016708;28;20048;-76
2023/03/24 13:17:06;;;;;;;6.00;4.60;;;;;;;;;;5012334;28;20041;-76
2023/03/24 13:19:33;;;;;;;6.30;4.40;;;;;;;;;;5013775;28;20060;-76
2023/03/24 13:21:59;;;;;;;4.50;3.63;;;;;;;;;;5016762;28;20017;-79
2023/03/24 13:24:25;;;;;;;6.25;4.32;;;;;;;;;;5013713;28;20147;-76
2023/03/24 13:26:59;;;;;;;4.45;3.40;;;;;;;;;;5016919;28;20066;-75
2023/03/24 13:29:40;;;;;;;3.15;2.85;;;;;;;;;;5010945;28;20037;-76
2023/03/24 13:32:21;;;;;;;3.72;3.35;;;;;;;;;;5011672;28;20453;-72
2023/03/24 13:34:53;;;;;;;4.80;3.25;;;;;;;;;;5001923;28;20104;-71
2023/03/24 13:37:24;;;;;;;4.43;3.47;;;;;;;;;;5009419;28;20032;-70
2023/03/24 13:39:53;;;;;;;4.88;3.90;;;;;;;;;;4999523;28;20119;-69
2023/03/24 13:42:32;;;;;;;5.00;4.50;;;;;;;;;;5000679;28;20033;-69
2023/03/24 13:45:02;;;;;;;4.50;4.10;;;;;;;;;;5000730;28;20043;-72
2023/03/24 13:47:46;;;;;;;4.47;4.07;;;;;;;;;;5000015;28;20049;-75
2023/03/24 13:50:12;;;;;;;3.40;3.08;;;;;;;;;;5000089;28;20547;-75
2023/03/24 13:52:38;;;;;;;3.47;3.17;;;;;;;;;;5003143;28;20461;-74
2023/03/24 13:55:25;;;;;;;3.78;3.22;;;;;;;;;;5000028;28;20040;-75
2023/03/24 13:58:12;;;;;;;3.30;3.00;;;;;;;;;;5003586;28;20534;-73
2023/03/24 14:00:55;;;;;;;6.45;5.20;;;;;;;;;;5016139;28;20609;-73
2023/03/24 14:03:33;;;;;;;5.30;3.90;;;;;;;;;;5003117;28;20030;-76
2023/03/24 14:06:03;;;;;;;8.27;4.90;;;;;;;;;;5013288;28;20037;-77
2023/03/24 14:08:47;;;;;;;4.22;3.75;;;;;;;;;;5014341;28;20064;-74
2023/03/24 14:11:30;;;;;;;4.20;3.78;;;;;;;;;;5003443;28;20061;-74
2023/03/24 14:14:06;;;;;;;4.55;3.92;;;;;;;;;;5011103;28;20029;-75
2023/03/24 14:16:50;;;;;;;7.32;5.32;;;;;;;;;;5013328;28;20460;-76
2023/03/24 14:19:21;;;;;;;6.38;3.35;;;;;;;;;;5010452;28;20037;-75
2023/03/24 14:22:05;;;;;;;3.05;2.78;;;;;;;;;;5003907;28;20786;-76
2023/03/24 14:24:31;;;;;;;3.45;3.15;;;;;;;;;;5008628;28;20136;-75
2023/03/24 14:26:57;;;;;;;3.10;2.70;;;;;;;;;;5012365;28;20022;-71
2023/03/24 14:29:37;;;;;;;3.65;3.35;;;;;;;;;;5005481;28;20471;-73
2023/03/24 14:32:03;;;;;;;3.00;2.80;;;;;;;;;;5010174;28;20037;-71
2023/03/24 14:34:28;;;;;;;2.60;2.40;;;;;;;;;;5004235;28;20029;-73
2023/03/24 14:36:58;;;;;;;3.05;2.75;;;;;;;;;;5007258;28;20033;-71
2023/03/24 14:39:27;;;;;;;4.57;3.45;;;;;;;;;;5017320;28;20021;-71